Time;durP1;ratioP1;P1;durP2;ratioP2;P2;SDS_P1;SDS_P2;PMS_P1;PMS_P2;Temp;Humidity;BMP_temperature;BMP_pressure;BME280_temperature;BME280_humidity;BME280_pressure;Samples;Min_cycle;Max_cycle;Signal;HPM_P1;HPM_P2
2022/11/14 00:01:59;;;;;;;4.88;1.50;;;;;;;;;;5082310;28;20040;-68
2022/11/14 00:04:26;;;;;;;5.18;1.50;;;;;;;;;;5084082;27;20902;-67
2022/11/14 00:06:53;;;;;;;5.65;1.63;;;;;;;;;;5084667;28;20040;-67
2022/11/14 00:09:19;;;;;;;12.48;2.05;;;;;;;;;;5085860;28;20370;-67
2022/11/14 00:11:46;;;;;;;7.40;2.22;;;;;;;;;;5085834;28;20111;-67
2022/11/14 00:14:12;;;;;;;8.43;1.73;;;;;;;;;;5083273;28;20051;-72
2022/11/14 00:16:39;;;;;;;10.80;2.13;;;;;;;;;;5063983;28;20850;-64
2022/11/14 00:19:06;;;;;;;7.20;2.05;;;;;;;;;;5086945;28;20027;-67
2022/11/14 00:21:32;;;;;;;8.15;1.73;;;;;;;;;;5077558;28;20070;-66
2022/11/14 00:23:59;;;;;;;5.75;1.75;;;;;;;;;;5086458;28;20055;-66
2022/11/14 00:26:25;;;;;;;8.85;2.42;;;;;;;;;;5092233;28;20074;-67
2022/11/14 00:28:54;;;;;;;13.80;3.40;;;;;;;;;;5092388;27;20756;-69
2022/11/14 00:31:21;;;;;;;5.75;1.75;;;;;;;;;;5090969;27;20034;-64
2022/11/14 00:33:48;;;;;;;7.05;2.45;;;;;;;;;;5082857;28;20036;-66
2022/11/14 00:36:14;;;;;;;5.68;2.25;;;;;;;;;;5092007;27;20046;-66
2022/11/14 00:38:41;;;;;;;9.68;2.42;;;;;;;;;;5091547;27;20058;-67
2022/11/14 00:41:08;;;;;;;8.25;2.35;;;;;;;;;;5092471;28;20032;-67
2022/11/14 00:43:35;;;;;;;5.82;2.35;;;;;;;;;;5087461;28;20063;-66
2022/11/14 00:46:01;;;;;;;9.70;2.67;;;;;;;;;;5092340;28;20032;-66
2022/11/14 00:48:28;;;;;;;7.20;3.33;;;;;;;;;;5091944;27;20048;-66
2022/11/14 00:50:55;;;;;;;9.80;3.60;;;;;;;;;;5092947;28;20613;-71
2022/11/14 00:53:21;;;;;;;10.82;3.42;;;;;;;;;;5091394;28;20047;-64
2022/11/14 00:55:48;;;;;;;13.45;4.10;;;;;;;;;;5091250;28;20131;-65
2022/11/14 00:58:14;;;;;;;11.20;3.85;;;;;;;;;;5091718;28;20039;-65
2022/11/14 01:00:41;;;;;;;7.05;2.92;;;;;;;;;;5089816;27;20047;-64
2022/11/14 01:03:08;;;;;;;7.10;2.40;;;;;;;;;;5090976;27;20122;-65
2022/11/14 01:05:39;;;;;;;12.57;2.88;;;;;;;;;;5089125;28;20039;-66
2022/11/14 01:08:06;;;;;;;10.35;2.40;;;;;;;;;;5091102;28;20032;-64
2022/11/14 01:10:32;;;;;;;9.10;2.85;;;;;;;;;;5089362;27;21418;-65
2022/11/14 01:12:59;;;;;;;7.32;2.72;;;;;;;;;;5088769;27;20044;-67
2022/11/14 01:15:26;;;;;;;6.30;2.75;;;;;;;;;;5089103;27;20031;-65
2022/11/14 01:17:52;;;;;;;8.02;2.47;;;;;;;;;;5089912;27;20076;-66
2022/11/14 01:20:19;;;;;;;7.32;2.50;;;;;;;;;;5090643;27;20047;-64
2022/11/14 01:22:45;;;;;;;9.38;2.95;;;;;;;;;;5091823;28;20063;-64
2022/11/14 01:25:12;;;;;;;8.02;3.00;;;;;;;;;;5090480;27;20032;-65
2022/11/14 01:27:39;;;;;;;7.90;3.88;;;;;;;;;;5091827;28;20487;-66
2022/11/14 01:30:05;;;;;;;8.60;3.25;;;;;;;;;;5090425;28;20036;-66
2022/11/14 01:32:32;;;;;;;8.00;3.83;;;;;;;;;;5092067;27;20028;-65
2022/11/14 01:34:59;;;;;;;8.00;3.40;;;;;;;;;;5091688;27;20036;-65
2022/11/14 01:37:25;;;;;;;6.32;2.85;;;;;;;;;;5086928;28;20036;-67
2022/11/14 01:39:52;;;;;;;14.93;2.67;;;;;;;;;;5086835;27;20052;-65
2022/11/14 01:42:18;;;;;;;6.07;2.45;;;;;;;;;;5088060;28;20124;-66
2022/11/14 01:44:52;;;;;;;5.60;1.90;;;;;;;;;;5087824;28;20047;-66
2022/11/14 01:47:27;;;;;;;7.70;1.98;;;;;;;;;;5087645;28;20044;-66
2022/11/14 01:49:55;;;;;;;4.53;1.90;;;;;;;;;;5086853;28;20052;-66
2022/11/14 01:52:22;;;;;;;6.05;1.88;;;;;;;;;;5087438;28;20040;-66
2022/11/14 01:54:51;;;;;;;4.78;1.70;;;;;;;;;;5086616;28;20071;-66
2022/11/14 01:57:21;;;;;;;4.38;1.50;;;;;;;;;;5088673;28;20062;-67
2022/11/14 01:59:52;;;;;;;4.85;1.60;;;;;;;;;;5087166;28;20039;-65
2022/11/14 02:02:21;;;;;;;7.25;1.73;;;;;;;;;;5085238;28;20529;-66
2022/11/14 02:04:51;;;;;;;4.80;1.55;;;;;;;;;;5086512;27;20579;-65
2022/11/14 02:07:18;;;;;;;5.53;1.75;;;;;;;;;;5087080;28;20047;-66
2022/11/14 02:09:46;;;;;;;12.38;2.55;;;;;;;;;;5087060;27;20048;-69
2022/11/14 02:12:14;;;;;;;10.32;2.70;;;;;;;;;;5088804;28;20044;-63
2022/11/14 02:14:44;;;;;;;6.32;1.90;;;;;;;;;;5085351;27;20198;-64
2022/11/14 02:17:11;;;;;;;10.93;1.95;;;;;;;;;;5087041;28;20032;-65
2022/11/14 02:19:59;;;;;;;5.90;2.22;;;;;;;;;;5086190;27;20044;-64
2022/11/14 02:22:26;;;;;;;7.95;3.10;;;;;;;;;;5085564;28;20048;-64
2022/11/14 02:24:52;;;;;;;12.40;3.60;;;;;;;;;;5087500;27;20054;-64
2022/11/14 02:27:19;;;;;;;10.15;3.20;;;;;;;;;;5087236;28;20049;-66
2022/11/14 02:29:46;;;;;;;7.28;2.08;;;;;;;;;;5087694;27;20795;-66
2022/11/14 02:32:12;;;;;;;5.93;2.40;;;;;;;;;;5086748;28;20047;-65
2022/11/14 02:34:39;;;;;;;6.45;2.63;;;;;;;;;;5087704;27;20066;-65
2022/11/14 02:37:06;;;;;;;8.02;2.35;;;;;;;;;;5087795;28;20032;-67
2022/11/14 02:39:32;;;;;;;6.35;2.83;;;;;;;;;;5086664;27;20461;-65
2022/11/14 02:42:01;;;;;;;7.03;2.75;;;;;;;;;;5085328;28;20051;-65
2022/11/14 02:44:27;;;;;;;5.78;2.40;;;;;;;;;;5086598;28;20152;-64
2022/11/14 02:46:54;;;;;;;9.85;2.25;;;;;;;;;;5088124;28;20085;-65
2022/11/14 02:49:21;;;;;;;5.28;1.65;;;;;;;;;;5085837;28;20051;-66
2022/11/14 02:51:47;;;;;;;4.88;1.88;;;;;;;;;;5087310;28;20032;-65
2022/11/14 02:54:14;;;;;;;5.68;1.83;;;;;;;;;;5087251;28;20029;-65
2022/11/14 02:56:40;;;;;;;5.32;1.80;;;;;;;;;;5086566;28;20035;-68
2022/11/14 02:59:07;;;;;;;7.97;1.77;;;;;;;;;;5066807;28;20032;-65
2022/11/14 03:01:34;;;;;;;6.50;1.90;;;;;;;;;;5086401;28;20059;-65
2022/11/14 03:04:00;;;;;;;3.85;1.60;;;;;;;;;;5086257;28;20096;-64
2022/11/14 03:06:27;;;;;;;6.30;2.13;;;;;;;;;;5086902;28;20032;-67
2022/11/14 03:08:54;;;;;;;5.25;1.70;;;;;;;;;;5086955;28;20051;-67
2022/11/14 03:11:20;;;;;;;5.95;1.95;;;;;;;;;;5087154;28;20036;-66
2022/11/14 03:13:47;;;;;;;5.35;1.42;;;;;;;;;;5087669;27;20780;-65
2022/11/14 03:16:14;;;;;;;4.88;1.83;;;;;;;;;;5085788;28;20060;-67
2022/11/14 03:18:40;;;;;;;5.78;1.50;;;;;;;;;;5085347;28;20036;-66
2022/11/14 03:21:10;;;;;;;3.42;1.33;;;;;;;;;;5087066;27;20503;-66
2022/11/14 03:23:37;;;;;;;11.60;1.38;;;;;;;;;;5085597;28;20142;-66
2022/11/14 03:26:06;;;;;;;2.83;1.00;;;;;;;;;;5087542;27;20040;-66
2022/11/14 03:28:32;;;;;;;4.93;1.30;;;;;;;;;;5084955;28;20750;-67
2022/11/14 03:30:59;;;;;;;4.65;1.42;;;;;;;;;;5086492;28;20143;-65
2022/11/14 03:33:25;;;;;;;3.75;1.38;;;;;;;;;;5085853;28;20047;-67
2022/11/14 03:35:52;;;;;;;4.75;1.42;;;;;;;;;;5086370;28;20189;-67
2022/11/14 03:38:21;;;;;;;4.22;1.70;;;;;;;;;;5085334;28;20048;-67
2022/11/14 03:40:49;;;;;;;6.50;1.55;;;;;;;;;;5085178;27;20028;-65
2022/11/14 03:43:16;;;;;;;6.95;2.80;;;;;;;;;;5085968;28;20724;-68
2022/11/14 03:45:42;;;;;;;4.78;2.00;;;;;;;;;;5085730;28;20040;-67
2022/11/14 03:48:09;;;;;;;5.80;1.95;;;;;;;;;;5084888;28;20040;-65
2022/11/14 03:50:36;;;;;;;8.82;1.85;;;;;;;;;;5085394;28;20082;-67
2022/11/14 03:53:02;;;;;;;6.30;1.90;;;;;;;;;;5084349;28;20044;-69
2022/11/14 03:55:29;;;;;;;5.22;1.45;;;;;;;;;;5065371;28;20059;-66
2022/11/14 03:57:56;;;;;;;6.00;1.58;;;;;;;;;;5063744;28;20435;-65
2022/11/14 04:00:22;;;;;;;3.78;1.40;;;;;;;;;;5084461;28;20440;-64
2022/11/14 04:02:49;;;;;;;4.18;1.75;;;;;;;;;;5085025;28;20043;-65
2022/11/14 04:05:15;;;;;;;4.90;1.70;;;;;;;;;;5085389;28;20039;-65
2022/11/14 04:07:42;;;;;;;6.10;1.90;;;;;;;;;;5085361;28;20036;-66
2022/11/14 04:10:09;;;;;;;4.35;1.60;;;;;;;;;;5085047;28;20119;-65
2022/11/14 04:12:35;;;;;;;13.63;5.90;;;;;;;;;;5084691;28;20048;-66
2022/11/14 04:15:02;;;;;;;3.47;1.30;;;;;;;;;;5083618;27;20244;-65
2022/11/14 04:17:29;;;;;;;4.10;1.40;;;;;;;;;;5085842;28;20050;-67
2022/11/14 04:19:55;;;;;;;3.00;0.85;;;;;;;;;;5086553;27;20066;-66
2022/11/14 04:22:22;;;;;;;3.40;1.00;;;;;;;;;;5086154;28;20048;-65
2022/11/14 04:24:48;;;;;;;4.45;0.70;;;;;;;;;;5084604;27;20031;-64
2022/11/14 04:27:15;;;;;;;2.70;1.00;;;;;;;;;;5085715;28;20054;-66
2022/11/14 04:29:41;;;;;;;2.97;0.90;;;;;;;;;;5086233;27;20040;-68
2022/11/14 04:32:08;;;;;;;3.35;0.90;;;;;;;;;;5085571;28;20092;-66
2022/11/14 04:34:35;;;;;;;2.65;0.70;;;;;;;;;;5084253;27;20145;-65
2022/11/14 04:37:01;;;;;;;2.08;0.60;;;;;;;;;;5085765;28;20051;-66
2022/11/14 04:39:28;;;;;;;2.03;0.75;;;;;;;;;;5085508;27;20052;-65
2022/11/14 04:41:54;;;;;;;2.55;0.70;;;;;;;;;;5085526;28;20043;-65
2022/11/14 04:44:21;;;;;;;1.67;0.68;;;;;;;;;;5083353;28;20068;-65
2022/11/14 04:46:47;;;;;;;2.33;0.80;;;;;;;;;;5085906;28;20027;-65
2022/11/14 04:49:14;;;;;;;2.90;0.77;;;;;;;;;;5085093;28;20084;-66
2022/11/14 04:51:41;;;;;;;2.28;0.68;;;;;;;;;;5085165;28;20064;-65
2022/11/14 04:54:07;;;;;;;2.38;0.90;;;;;;;;;;5085061;28;20040;-66
2022/11/14 04:56:34;;;;;;;2.28;0.75;;;;;;;;;;5083555;27;20040;-64
2022/11/14 04:59:01;;;;;;;1.75;0.60;;;;;;;;;;5085628;28;20045;-63
2022/11/14 05:01:27;;;;;;;1.60;0.60;;;;;;;;;;5082687;27;20913;-64
2022/11/14 05:03:54;;;;;;;2.35;0.77;;;;;;;;;;5084971;28;20047;-63
2022/11/14 05:06:20;;;;;;;2.08;0.60;;;;;;;;;;5083538;28;20043;-66
2022/11/14 05:08:47;;;;;;;1.63;0.60;;;;;;;;;;5084963;28;20067;-63
2022/11/14 05:11:15;;;;;;;1.50;0.50;;;;;;;;;;5085570;27;20036;-65
2022/11/14 05:13:42;;;;;;;2.72;0.82;;;;;;;;;;5072863;28;20051;-65
2022/11/14 05:16:08;;;;;;;2.05;0.68;;;;;;;;;;5088693;28;20173;-65
2022/11/14 05:18:35;;;;;;;2.45;0.70;;;;;;;;;;5088142;28;20573;-66
2022/11/14 05:21:02;;;;;;;1.75;0.70;;;;;;;;;;5088258;27;20040;-66
2022/11/14 05:23:29;;;;;;;2.20;0.77;;;;;;;;;;5087142;28;20669;-65
2022/11/14 05:26:03;;;;;;;1.55;0.47;;;;;;;;;;5086821;27;20032;-66
2022/11/14 05:28:29;;;;;;;2.17;0.73;;;;;;;;;;5088255;28;20154;-65
2022/11/14 05:31:02;;;;;;;2.35;0.70;;;;;;;;;;5088236;28;20039;-67
2022/11/14 05:33:29;;;;;;;3.05;0.75;;;;;;;;;;5087920;28;20043;-66
2022/11/14 05:35:55;;;;;;;2.28;0.73;;;;;;;;;;5087565;27;20464;-64
2022/11/14 05:38:22;;;;;;;2.17;0.70;;;;;;;;;;5088557;28;20071;-64
2022/11/14 05:40:49;;;;;;;2.85;0.80;;;;;;;;;;5088168;27;20043;-65
2022/11/14 05:43:15;;;;;;;2.05;0.73;;;;;;;;;;5087856;28;20111;-66
2022/11/14 05:45:42;;;;;;;2.45;0.82;;;;;;;;;;5087952;28;20035;-65
2022/11/14 05:48:08;;;;;;;2.80;0.80;;;;;;;;;;5087870;28;20119;-64
2022/11/14 05:50:35;;;;;;;2.97;0.80;;;;;;;;;;5085527;28;20032;-67
2022/11/14 05:53:01;;;;;;;4.40;0.90;;;;;;;;;;5087066;28;20032;-65
2022/11/14 05:55:28;;;;;;;3.38;1.05;;;;;;;;;;5088085;27;20051;-66
2022/11/14 05:57:58;;;;;;;2.70;0.90;;;;;;;;;;5087555;28;20027;-66
2022/11/14 06:00:25;;;;;;;2.38;0.75;;;;;;;;;;5086910;28;20053;-66
2022/11/14 06:02:55;;;;;;;4.03;0.80;;;;;;;;;;5087058;28;20081;-65
2022/11/14 06:05:22;;;;;;;2.80;0.90;;;;;;;;;;5087345;28;20123;-64
2022/11/14 06:07:54;;;;;;;2.25;0.75;;;;;;;;;;5087450;28;20032;-65
2022/11/14 06:10:21;;;;;;;2.60;0.77;;;;;;;;;;5086844;28;20040;-65
2022/11/14 06:12:47;;;;;;;2.08;0.68;;;;;;;;;;5086989;28;20040;-66
2022/11/14 06:15:14;;;;;;;2.53;0.82;;;;;;;;;;5086549;27;20361;-67
2022/11/14 06:17:41;;;;;;;2.20;0.77;;;;;;;;;;5086832;28;20092;-64
2022/11/14 06:20:08;;;;;;;2.80;0.85;;;;;;;;;;5073171;28;20040;-65
2022/11/14 06:22:34;;;;;;;3.50;0.95;;;;;;;;;;5085801;28;20048;-65
2022/11/14 06:25:01;;;;;;;1.95;0.55;;;;;;;;;;5085839;27;20163;-65
2022/11/14 06:27:28;;;;;;;2.33;0.60;;;;;;;;;;5071829;28;20491;-66
2022/11/14 06:29:55;;;;;;;2.13;0.60;;;;;;;;;;5086234;27;20036;-66
2022/11/14 06:32:21;;;;;;;3.72;0.88;;;;;;;;;;5085426;28;20082;-65
2022/11/14 06:34:48;;;;;;;4.20;1.35;;;;;;;;;;5087331;28;20372;-65
2022/11/14 06:37:14;;;;;;;1.80;0.60;;;;;;;;;;5087008;28;20040;-66
2022/11/14 06:39:41;;;;;;;2.58;0.82;;;;;;;;;;5086292;28;20133;-66
2022/11/14 06:42:07;;;;;;;3.85;0.68;;;;;;;;;;5086892;28;20544;-66
2022/11/14 06:44:34;;;;;;;1.70;0.60;;;;;;;;;;5086433;28;20064;-65
2022/11/14 06:47:01;;;;;;;3.30;0.80;;;;;;;;;;5087012;28;20040;-66
2022/11/14 06:49:27;;;;;;;1.50;0.57;;;;;;;;;;5086723;28;20039;-65
2022/11/14 06:51:54;;;;;;;2.05;0.75;;;;;;;;;;5087400;28;20032;-66
2022/11/14 06:54:21;;;;;;;3.90;0.80;;;;;;;;;;5084102;27;20103;-64
2022/11/14 06:56:47;;;;;;;0.93;0.47;;;;;;;;;;5088141;28;20495;-64
2022/11/14 06:59:14;;;;;;;2.33;0.80;;;;;;;;;;5087680;28;20040;-64
2022/11/14 07:01:40;;;;;;;2.97;0.77;;;;;;;;;;5084947;28;20044;-64
2022/11/14 07:04:07;;;;;;;2.80;0.85;;;;;;;;;;5085974;28;20135;-65
2022/11/14 07:06:34;;;;;;;2.70;0.80;;;;;;;;;;5083840;27;20032;-65
2022/11/14 07:09:00;;;;;;;2.05;0.77;;;;;;;;;;5087816;28;20031;-65
2022/11/14 07:11:28;;;;;;;3.38;1.00;;;;;;;;;;5086417;27;20088;-66
2022/11/14 07:13:57;;;;;;;2.58;0.90;;;;;;;;;;5085801;28;20084;-65
2022/11/14 07:16:24;;;;;;;2.70;0.90;;;;;;;;;;5085998;28;21689;-64
2022/11/14 07:18:51;;;;;;;2.60;0.80;;;;;;;;;;5087480;28;20044;-64
2022/11/14 07:21:17;;;;;;;7.15;0.75;;;;;;;;;;5086156;27;20551;-64
2022/11/14 07:23:44;;;;;;;4.35;0.80;;;;;;;;;;5085878;28;20054;-65
2022/11/14 07:26:11;;;;;;;2.75;0.95;;;;;;;;;;5087768;27;20074;-64
2022/11/14 07:28:39;;;;;;;2.58;0.80;;;;;;;;;;5085778;28;20148;-64
2022/11/14 07:31:11;;;;;;;3.08;0.90;;;;;;;;;;5086478;28;20051;-66
2022/11/14 07:33:37;;;;;;;2.63;0.90;;;;;;;;;;5086536;28;20123;-64
2022/11/14 07:36:04;;;;;;;3.47;1.02;;;;;;;;;;5086572;28;20051;-65
2022/11/14 07:38:32;;;;;;;3.92;1.00;;;;;;;;;;5085163;28;20470;-65
2022/11/14 07:40:59;;;;;;;3.45;1.13;;;;;;;;;;5084520;27;20169;-66
2022/11/14 07:43:26;;;;;;;1.90;0.60;;;;;;;;;;5078368;28;20039;-65
2022/11/14 07:45:53;;;;;;;1.77;0.65;;;;;;;;;;5087095;28;20767;-66
2022/11/14 07:48:20;;;;;;;2.03;0.70;;;;;;;;;;5086181;28;20734;-65
2022/11/14 07:50:47;;;;;;;2.35;0.80;;;;;;;;;;5065079;28;20214;-65
2022/11/14 07:53:15;;;;;;;3.10;0.80;;;;;;;;;;5085685;28;20044;-65
2022/11/14 07:55:41;;;;;;;3.10;0.80;;;;;;;;;;5083135;28;20056;-65
2022/11/14 07:58:08;;;;;;;2.22;0.80;;;;;;;;;;5087641;28;20036;-66
2022/11/14 08:00:34;;;;;;;1.73;0.70;;;;;;;;;;5087158;28;20102;-66
2022/11/14 08:03:01;;;;;;;2.10;0.90;;;;;;;;;;5086091;28;20047;-63
2022/11/14 08:05:28;;;;;;;1.95;0.70;;;;;;;;;;5086802;28;20047;-63
2022/11/14 08:07:54;;;;;;;1.73;0.70;;;;;;;;;;5086678;28;20195;-66
2022/11/14 08:10:21;;;;;;;4.15;0.80;;;;;;;;;;5085941;28;20123;-66
2022/11/14 08:12:47;;;;;;;2.08;0.70;;;;;;;;;;5086018;28;20044;-66
2022/11/14 08:15:14;;;;;;;2.50;0.60;;;;;;;;;;5084760;28;20039;-65
2022/11/14 08:17:41;;;;;;;1.75;0.60;;;;;;;;;;5084438;28;20028;-65
2022/11/14 08:20:08;;;;;;;1.95;0.77;;;;;;;;;;5078147;28;20024;-64
2022/11/14 08:22:35;;;;;;;3.15;0.75;;;;;;;;;;5084391;28;20461;-67
2022/11/14 08:25:01;;;;;;;2.45;0.70;;;;;;;;;;5070655;28;20063;-65
2022/11/14 08:27:28;;;;;;;1.63;0.57;;;;;;;;;;5083474;28;20039;-65
2022/11/14 08:29:54;;;;;;;2.15;0.70;;;;;;;;;;5087366;27;20163;-67
2022/11/14 08:32:21;;;;;;;2.17;0.70;;;;;;;;;;5083833;28;20092;-66
2022/11/14 08:34:48;;;;;;;3.38;0.80;;;;;;;;;;5084866;27;20047;-65
2022/11/14 08:37:14;;;;;;;2.22;0.70;;;;;;;;;;5086326;28;20078;-65
2022/11/14 08:39:41;;;;;;;4.45;0.80;;;;;;;;;;5085215;27;20158;-66
2022/11/14 08:42:07;;;;;;;2.58;0.68;;;;;;;;;;5085086;28;20079;-66
2022/11/14 08:44:34;;;;;;;1.77;0.57;;;;;;;;;;5084816;28;20051;-66
2022/11/14 08:47:02;;;;;;;3.33;0.85;;;;;;;;;;5089142;28;20556;-67
2022/11/14 08:49:29;;;;;;;2.15;0.73;;;;;;;;;;5089158;27;20141;-66
2022/11/14 08:51:56;;;;;;;2.10;0.70;;;;;;;;;;5088944;28;20044;-66
2022/11/14 08:54:22;;;;;;;2.67;0.88;;;;;;;;;;5088806;28;20044;-66
2022/11/14 08:56:49;;;;;;;2.30;0.70;;;;;;;;;;5088142;28;20487;-65
2022/11/14 08:59:15;;;;;;;2.63;0.77;;;;;;;;;;5061000;28;20036;-67
2022/11/14 09:01:42;;;;;;;2.25;0.75;;;;;;;;;;5089248;27;20126;-68
2022/11/14 09:04:09;;;;;;;1.85;0.70;;;;;;;;;;5073742;28;20051;-65
2022/11/14 09:06:35;;;;;;;2.42;0.70;;;;;;;;;;5080231;28;20048;-67
2022/11/14 09:09:02;;;;;;;2.40;0.80;;;;;;;;;;5089123;28;20130;-65
2022/11/14 09:11:29;;;;;;;3.47;0.80;;;;;;;;;;5088691;28;20834;-65
2022/11/14 09:13:55;;;;;;;2.55;0.85;;;;;;;;;;5086405;28;20050;-65
2022/11/14 09:16:22;;;;;;;2.55;0.80;;;;;;;;;;5088894;28;20035;-66
2022/11/14 09:18:48;;;;;;;2.53;0.73;;;;;;;;;;5089573;28;20137;-65
2022/11/14 09:21:15;;;;;;;2.38;0.70;;;;;;;;;;5089726;28;20073;-65
2022/11/14 09:23:42;;;;;;;2.10;0.60;;;;;;;;;;5089050;28;20424;-65
2022/11/14 09:26:09;;;;;;;3.03;0.90;;;;;;;;;;5090509;28;20036;-65
2022/11/14 09:28:36;;;;;;;2.55;0.60;;;;;;;;;;5087174;28;20044;-65
2022/11/14 09:31:05;;;;;;;2.28;0.70;;;;;;;;;;5087722;28;20035;-66
2022/11/14 09:33:32;;;;;;;2.47;0.80;;;;;;;;;;5088234;28;20070;-66
2022/11/14 09:35:59;;;;;;;2.45;0.80;;;;;;;;;;5087022;27;20032;-64
2022/11/14 09:38:27;;;;;;;2.65;0.85;;;;;;;;;;5087179;28;20109;-65
2022/11/14 09:41:26;;;;;;;3.35;0.90;;;;;;;;;;5088074;28;20070;-65
2022/11/14 09:43:55;;;;;;;2.97;0.82;;;;;;;;;;5054965;28;20063;-65
2022/11/14 09:46:27;;;;;;;2.50;0.80;;;;;;;;;;5086376;28;20036;-65
2022/11/14 09:48:53;;;;;;;2.47;0.80;;;;;;;;;;5086434;28;20965;-64
2022/11/14 09:51:21;;;;;;;3.75;1.10;;;;;;;;;;5087525;28;20051;-65
2022/11/14 09:53:52;;;;;;;2.55;0.90;;;;;;;;;;5087435;28;20042;-66
2022/11/14 09:56:26;;;;;;;1.38;0.50;;;;;;;;;;5086483;28;20042;-67
2022/11/14 09:58:56;;;;;;;2.70;0.77;;;;;;;;;;5084819;28;20067;-64
2022/11/14 10:01:23;;;;;;;2.50;0.75;;;;;;;;;;5087616;28;20043;-65
2022/11/14 10:03:53;;;;;;;3.40;0.80;;;;;;;;;;5087335;27;20126;-64
2022/11/14 10:06:21;;;;;;;2.17;0.80;;;;;;;;;;5086782;27;20104;-65
2022/11/14 10:08:57;;;;;;;2.15;0.70;;;;;;;;;;5088162;28;20444;-64
2022/11/14 10:11:29;;;;;;;2.42;0.80;;;;;;;;;;5087041;28;20036;-65
2022/11/14 10:14:04;;;;;;;2.28;0.70;;;;;;;;;;5087645;28;20050;-65
2022/11/14 10:16:30;;;;;;;2.40;0.70;;;;;;;;;;5086442;28;20553;-65
2022/11/14 10:19:12;;;;;;;2.15;0.70;;;;;;;;;;5067518;28;20043;-65
2022/11/14 10:21:39;;;;;;;1.92;0.60;;;;;;;;;;5088438;27;20040;-66
2022/11/14 10:24:17;;;;;;;1.90;0.60;;;;;;;;;;5085898;28;20445;-64
2022/11/14 10:27:06;;;;;;;2.30;0.70;;;;;;;;;;5087077;28;20063;-65
2022/11/14 10:29:39;;;;;;;1.88;0.60;;;;;;;;;;5075976;28;20043;-68
2022/11/14 10:32:06;;;;;;;;;;;;;;;;;;5087464;28;20047;-67
2022/11/14 10:34:36;;;;;;;2.65;0.70;;;;;;;;;;5086891;28;19998;-65
2022/11/14 10:37:06;;;;;;;2.80;0.90;;;;;;;;;;5085468;27;20053;-66
2022/11/14 10:39:42;;;;;;;3.35;0.93;;;;;;;;;;5086825;28;20608;-65
2022/11/14 10:42:12;;;;;;;3.45;0.95;;;;;;;;;;5084374;28;20141;-65
2022/11/14 10:44:49;;;;;;;2.25;0.80;;;;;;;;;;5083878;28;20047;-65
2022/11/14 10:47:18;;;;;;;3.75;1.10;;;;;;;;;;5087383;28;21713;-66
2022/11/14 10:49:46;;;;;;;3.67;0.90;;;;;;;;;;5087131;27;20036;-66
2022/11/14 10:52:14;;;;;;;2.63;0.73;;;;;;;;;;5086619;28;20044;-70
2022/11/14 10:54:41;;;;;;;3.40;0.93;;;;;;;;;;5087675;28;20054;-66
2022/11/14 10:57:18;;;;;;;3.38;0.80;;;;;;;;;;5087809;28;20073;-65
2022/11/14 10:59:46;;;;;;;3.17;0.90;;;;;;;;;;5065936;28;20097;-66
2022/11/14 11:02:12;;;;;;;2.65;0.88;;;;;;;;;;5084960;28;20112;-68
2022/11/14 11:04:40;;;;;;;2.10;0.60;;;;;;;;;;5086214;27;20039;-66
2022/11/14 11:07:07;;;;;;;3.75;0.85;;;;;;;;;;5071483;28;20050;-66
2022/11/14 11:12:23;;;;;;;2.17;0.70;;;;;;;;;;5085912;28;20023;-66
2022/11/14 11:15:07;;;;;;;2.50;0.70;;;;;;;;;;5087432;28;20036;-66
2022/11/14 11:17:34;;;;;;;1.75;0.68;;;;;;;;;;5084484;28;20479;-66
2022/11/14 11:20:19;;;;;;;2.90;0.90;;;;;;;;;;5086388;28;20561;-66
2022/11/14 11:22:46;;;;;;;2.85;1.00;;;;;;;;;;5085209;28;20105;-64
2022/11/14 11:25:23;;;;;;;2.58;1.00;;;;;;;;;;5087570;28;20393;-65
2022/11/14 11:28:04;;;;;;;3.13;1.10;;;;;;;;;;5101438;27;20428;-65
2022/11/14 11:30:31;;;;;;;3.38;1.20;;;;;;;;;;5085888;28;20582;-65
2022/11/14 11:33:14;;;;;;;3.13;1.17;;;;;;;;;;5085832;28;20035;-66
2022/11/14 11:35:41;;;;;;;2.90;1.20;;;;;;;;;;5085558;27;20125;-65
2022/11/14 11:38:09;;;;;;;3.10;1.15;;;;;;;;;;5086546;28;20217;-66
2022/11/14 11:40:36;;;;;;;2.88;1.02;;;;;;;;;;5086046;28;20047;-66
2022/11/14 11:43:05;;;;;;;3.15;1.30;;;;;;;;;;5086310;28;20581;-66
2022/11/14 11:45:33;;;;;;;3.88;1.55;;;;;;;;;;5086823;28;20487;-67
2022/11/14 11:48:06;;;;;;;2.95;1.20;;;;;;;;;;5070160;28;20391;-65
2022/11/14 11:50:33;;;;;;;4.03;1.35;;;;;;;;;;5084952;28;20129;-66
2022/11/14 11:53:07;;;;;;;3.58;1.38;;;;;;;;;;5085296;28;20044;-68
2022/11/14 11:55:34;;;;;;;3.65;1.48;;;;;;;;;;5084787;28;20112;-66
2022/11/14 11:58:05;;;;;;;3.58;1.40;;;;;;;;;;5081797;28;20046;-67
2022/11/14 12:00:32;;;;;;;4.22;1.33;;;;;;;;;;5085623;28;20125;-65
2022/11/14 12:02:59;;;;;;;3.50;1.30;;;;;;;;;;5070451;28;20062;-67
2022/11/14 12:05:29;;;;;;;3.55;1.30;;;;;;;;;;5071364;28;20055;-66
2022/11/14 12:08:03;;;;;;;3.20;1.23;;;;;;;;;;5065349;28;20036;-66
2022/11/14 12:10:36;;;;;;;3.72;1.23;;;;;;;;;;5065032;28;20047;-65
2022/11/14 12:13:21;;;;;;;3.05;1.10;;;;;;;;;;5085720;28;20044;-66
2022/11/14 12:15:59;;;;;;;6.18;1.35;;;;;;;;;;5086229;27;20515;-66
2022/11/14 12:18:30;;;;;;;3.38;1.20;;;;;;;;;;5085626;28;20036;-65
2022/11/14 12:20:56;;;;;;;3.95;1.33;;;;;;;;;;5085594;28;20044;-64
2022/11/14 12:23:26;;;;;;;4.32;1.38;;;;;;;;;;5084227;28;20055;-65
2022/11/14 12:26:06;;;;;;;3.45;1.38;;;;;;;;;;5086526;28;20034;-65
2022/11/14 12:28:52;;;;;;;3.30;1.30;;;;;;;;;;5080766;28;20170;-66
2022/11/14 12:31:19;;;;;;;3.47;1.15;;;;;;;;;;5082837;27;20031;-67
2022/11/14 12:34:05;;;;;;;3.97;1.30;;;;;;;;;;5086067;28;20788;-66
2022/11/14 12:36:34;;;;;;;3.33;1.38;;;;;;;;;;5074511;28;20055;-66
2022/11/14 12:39:01;;;;;;;3.33;1.20;;;;;;;;;;5085488;28;20407;-66
2022/11/14 12:41:32;;;;;;;2.65;1.08;;;;;;;;;;5067152;28;20778;-66
2022/11/14 12:44:17;;;;;;;4.10;1.25;;;;;;;;;;5084926;28;20047;-66
2022/11/14 12:47:19;;;;;;;3.45;1.27;;;;;;;;;;5085920;28;20403;-65
2022/11/14 12:49:49;;;;;;;3.70;1.10;;;;;;;;;;5057878;28;20048;-65
2022/11/14 12:52:33;;;;;;;3.15;1.08;;;;;;;;;;5079836;28;20438;-65
2022/11/14 12:55:00;;;;;;;2.95;1.08;;;;;;;;;;5084534;27;20040;-65
2022/11/14 12:57:49;;;;;;;3.40;1.27;;;;;;;;;;5086143;28;20032;-65
2022/11/14 13:00:16;;;;;;;2.58;1.00;;;;;;;;;;5063282;28;20521;-64
2022/11/14 13:02:46;;;;;;;2.80;1.00;;;;;;;;;;5083367;28;20044;-65
2022/11/14 13:05:38;;;;;;;2.60;1.00;;;;;;;;;;5085504;27;20630;-65
2022/11/14 13:08:20;;;;;;;3.55;1.10;;;;;;;;;;5083737;28;20058;-65
2022/11/14 13:10:47;;;;;;;2.40;0.80;;;;;;;;;;5082852;28;20122;-65
2022/11/14 13:21:44;;;;;;;2.08;0.70;;;;;;;;;;5081505;28;20131;-65
2022/11/14 13:24:20;;;;;;;2.88;0.95;;;;;;;;;;5085240;28;20138;-65
2022/11/14 13:26:51;;;;;;;2.58;0.95;;;;;;;;;;5083669;28;20032;-65
2022/11/14 13:29:36;;;;;;;2.40;0.55;;;;;;;;;;5084372;28;20085;-65
2022/11/14 13:32:02;;;;;;;2.75;0.90;;;;;;;;;;5083671;28;20488;-66
2022/11/14 13:34:33;;;;;;;2.55;0.90;;;;;;;;;;5057009;27;20124;-66
2022/11/14 13:37:32;;;;;;;2.50;0.80;;;;;;;;;;5087929;28;20055;-66
2022/11/14 13:39:59;;;;;;;2.65;0.93;;;;;;;;;;5060087;28;20052;-67
2022/11/14 13:42:25;;;;;;;3.40;1.05;;;;;;;;;;5087163;28;20055;-64
2022/11/14 13:44:55;;;;;;;4.35;0.90;;;;;;;;;;5089296;28;21856;-65
2022/11/14 13:47:40;;;;;;;2.88;1.02;;;;;;;;;;5086533;28;20040;-64
2022/11/14 13:50:17;;;;;;;5.70;1.00;;;;;;;;;;5088250;28;20538;-64
2022/11/14 13:52:45;;;;;;;1.67;0.90;;;;;;;;;;5087273;28;20485;-64
2022/11/14 13:55:19;;;;;;;3.25;1.02;;;;;;;;;;5088561;27;20039;-66
2022/11/14 13:57:46;;;;;;;2.88;0.85;;;;;;;;;;5087418;28;20039;-64
2022/11/14 14:00:14;;;;;;;3.13;0.98;;;;;;;;;;5087968;28;20108;-65
2022/11/14 14:02:49;;;;;;;3.35;1.30;;;;;;;;;;5085535;28;20059;-64
2022/11/14 14:05:27;;;;;;;2.35;0.80;;;;;;;;;;5086273;28;20202;-64
2022/11/14 14:08:12;;;;;;;2.10;0.70;;;;;;;;;;5085584;28;20047;-65
2022/11/14 14:10:47;;;;;;;1.73;0.50;;;;;;;;;;5087376;28;20133;-65
2022/11/14 14:13:32;;;;;;;1.88;0.70;;;;;;;;;;5088121;28;20032;-65
2022/11/14 14:16:15;;;;;;;2.40;0.90;;;;;;;;;;5086769;28;20682;-65
2022/11/14 14:18:41;;;;;;;2.60;0.80;;;;;;;;;;5087310;28;20142;-63
2022/11/14 14:21:27;;;;;;;2.58;0.90;;;;;;;;;;5087687;28;20039;-63
2022/11/14 14:24:03;;;;;;;1.40;0.43;;;;;;;;;;5086838;28;20056;-64
2022/11/14 14:26:35;;;;;;;2.38;0.85;;;;;;;;;;5083483;28;20880;-64
2022/11/14 14:29:21;;;;;;;4.25;1.00;;;;;;;;;;5087015;28;20028;-65
2022/11/14 14:31:47;;;;;;;2.97;0.88;;;;;;;;;;5086505;28;20625;-64
2022/11/14 14:34:24;;;;;;;2.47;0.80;;;;;;;;;;5087123;28;20075;-65
2022/11/14 14:36:53;;;;;;;4.25;1.00;;;;;;;;;;5084705;28;20075;-65
2022/11/14 14:39:21;;;;;;;4.20;1.00;;;;;;;;;;5085156;28;20102;-66
2022/11/14 14:41:48;;;;;;;3.35;1.00;;;;;;;;;;5086222;28;20096;-65
2022/11/14 14:44:17;;;;;;;2.42;0.88;;;;;;;;;;5086131;28;20067;-64
2022/11/14 14:46:44;;;;;;;3.67;1.02;;;;;;;;;;5084997;28;20939;-64
2022/11/14 14:49:11;;;;;;;2.55;0.80;;;;;;;;;;5085314;28;20043;-64
2022/11/14 14:51:37;;;;;;;2.80;0.82;;;;;;;;;;5076413;28;20063;-64
2022/11/14 14:54:06;;;;;;;2.20;0.70;;;;;;;;;;5086674;28;20897;-65
2022/11/14 14:56:33;;;;;;;3.22;1.00;;;;;;;;;;5082992;28;20031;-63
2022/11/14 14:59:15;;;;;;;2.67;1.00;;;;;;;;;;5086050;28;20032;-65
2022/11/14 15:01:41;;;;;;;2.63;0.60;;;;;;;;;;5084130;28;20063;-66
2022/11/14 15:04:12;;;;;;;2.83;1.10;;;;;;;;;;5086101;28;20051;-64
2022/11/14 15:06:39;;;;;;;2.70;1.00;;;;;;;;;;5086613;28;20090;-65